createdAt,value
2019-04-01T00:02:23.645Z,33.00
2019-04-01T00:04:52.053Z,34.23
2019-04-01T00:07:20.498Z,32.35
2019-04-01T00:09:48.913Z,33.48
2019-04-01T00:12:17.409Z,35.08
2019-04-01T00:14:45.833Z,34.53
2019-04-01T00:17:14.257Z,34.27
2019-04-01T00:19:42.704Z,34.13
2019-04-01T00:22:11.132Z,30.90
2019-04-01T00:24:39.542Z,33.60
2019-04-01T00:27:07.971Z,32.42
2019-04-01T00:29:36.433Z,32.10
2019-04-01T00:32:04.845Z,33.85
2019-04-01T00:34:33.289Z,33.87
2019-04-01T00:37:02.079Z,31.52
2019-04-01T00:39:30.501Z,34.43
2019-04-01T00:42:06.305Z,33.53
2019-04-01T00:44:34.709Z,33.80
2019-04-01T00:47:03.457Z,34.25
2019-04-01T00:49:31.871Z,31.37
2019-04-01T00:52:00.277Z,36.00
2019-04-01T00:54:28.699Z,36.10
2019-04-01T00:56:57.109Z,36.85
2019-04-01T00:59:25.543Z,34.10
2019-04-01T01:01:53.953Z,35.60
2019-04-01T01:04:22.373Z,34.43
2019-04-01T01:06:50.806Z,38.98
2019-04-01T01:09:19.277Z,37.42
2019-04-01T01:11:47.768Z,36.80
2019-04-01T01:14:16.182Z,37.40
2019-04-01T01:16:44.602Z,35.48
2019-04-01T01:19:13.025Z,35.70
2019-04-01T01:21:41.438Z,36.00
2019-04-01T01:24:09.882Z,37.93
2019-04-01T01:26:38.333Z,35.45
2019-04-01T01:29:06.771Z,37.75
2019-04-01T01:31:35.202Z,40.08
2019-04-01T01:34:03.641Z,34.67
2019-04-01T01:36:32.221Z,37.67
2019-04-01T01:39:00.665Z,36.83
2019-04-01T01:41:29.083Z,40.85
2019-04-01T01:43:57.525Z,38.90
2019-04-01T01:46:25.941Z,39.78
2019-04-01T01:48:54.667Z,39.08
2019-04-01T01:51:23.103Z,36.95
2019-04-01T01:53:51.533Z,38.92
2019-04-01T01:56:19.945Z,41.48
2019-04-01T01:58:48.374Z,39.58
2019-04-01T02:01:16.793Z,41.18
2019-04-01T02:03:45.234Z,40.23
2019-04-01T02:06:13.655Z,37.13
2019-04-01T02:08:42.057Z,35.63
2019-04-01T02:11:10.485Z,38.00
2019-04-01T02:13:38.896Z,40.45
2019-04-01T02:16:07.330Z,39.00
2019-04-01T02:18:35.755Z,39.27
2019-04-01T02:21:04.253Z,39.85
2019-04-01T02:23:32.723Z,39.23
2019-04-01T02:26:01.181Z,42.58
2019-04-01T02:28:29.620Z,41.13
2019-04-01T02:30:58.042Z,39.40
2019-04-01T02:33:26.460Z,40.78
2019-04-01T02:35:55.003Z,39.00
2019-04-01T02:38:23.523Z,39.88
2019-04-01T02:40:52.437Z,40.85
2019-04-01T02:43:20.838Z,37.25
2019-04-01T02:45:49.364Z,39.48
2019-04-01T02:48:17.867Z,36.40
2019-04-01T02:50:46.302Z,39.58
2019-04-01T02:53:14.709Z,39.40
2019-04-01T02:55:43.142Z,38.13
2019-04-01T02:58:11.534Z,40.23
2019-04-01T03:00:39.982Z,37.45
2019-04-01T03:03:08.400Z,38.63
2019-04-01T03:05:37.303Z,39.27
2019-04-01T03:08:05.717Z,38.35
2019-04-01T03:10:34.526Z,40.90
2019-04-01T03:13:02.937Z,41.60
2019-04-01T03:15:31.350Z,37.48
2019-04-01T03:17:59.807Z,37.67
2019-04-01T03:20:28.289Z,36.17
2019-04-01T03:22:56.717Z,39.63
2019-04-01T03:25:25.214Z,39.08
2019-04-01T03:27:53.617Z,36.98
2019-04-01T03:30:22.121Z,37.95
2019-04-01T03:32:50.618Z,40.05
2019-04-01T03:35:19.067Z,37.53
2019-04-01T03:37:47.499Z,38.30
2019-04-01T03:40:16.011Z,39.65
2019-04-01T03:42:44.421Z,37.90
2019-04-01T03:45:13.688Z,40.40
2019-04-01T03:47:42.115Z,39.75
2019-04-01T03:50:10.609Z,38.55
2019-04-01T03:52:39.025Z,38.55
2019-04-01T03:55:07.433Z,37.65
2019-04-01T03:57:35.887Z,40.23
2019-04-01T04:00:06.225Z,40.70
2019-04-01T04:02:34.633Z,37.85
2019-04-01T04:05:03.512Z,38.48
2019-04-01T04:07:31.956Z,38.70
2019-04-01T04:10:00.475Z,37.50
2019-04-01T04:12:29.061Z,35.98
2019-04-01T04:14:57.513Z,40.43
2019-04-01T04:17:25.934Z,37.88
2019-04-01T04:19:54.363Z,41.58
2019-04-01T04:22:22.858Z,40.08
2019-04-01T04:24:51.290Z,41.30
2019-04-01T04:27:19.715Z,40.90
2019-04-01T04:29:48.151Z,39.60
2019-04-01T04:32:16.917Z,37.00
2019-04-01T04:34:45.331Z,37.65
2019-04-01T04:37:13.882Z,37.85
2019-04-01T04:39:42.390Z,40.38
2019-04-01T04:42:10.836Z,37.55
2019-04-01T04:44:39.422Z,39.50
2019-04-01T04:47:07.920Z,41.08
2019-04-01T04:49:36.338Z,38.25
2019-04-01T04:52:05.467Z,39.42
2019-04-01T04:54:33.926Z,40.52
2019-04-01T04:57:02.381Z,39.42
2019-04-01T04:59:30.816Z,39.30
2019-04-01T05:01:59.473Z,38.80
2019-04-01T05:04:27.870Z,38.98
2019-04-01T05:06:56.295Z,37.83
2019-04-01T05:09:25.058Z,40.48
2019-04-01T05:11:53.506Z,41.25
2019-04-01T05:14:21.958Z,38.63
2019-04-01T05:16:50.386Z,37.95
2019-04-01T05:19:38.450Z,39.78
2019-04-01T05:22:07.767Z,40.03
2019-04-01T05:24:36.543Z,39.75
2019-04-01T05:27:04.958Z,38.50
2019-04-01T05:29:53.671Z,41.83
2019-04-01T05:32:22.636Z,39.30
2019-04-01T05:34:54.439Z,37.55
2019-04-01T05:37:22.854Z,36.65
2019-04-01T05:39:51.305Z,39.53
2019-04-01T05:42:20.108Z,40.25
2019-04-01T05:44:48.689Z,36.15
2019-04-01T05:47:18.372Z,36.48
2019-04-01T05:49:47.076Z,38.95
2019-04-01T05:52:15.517Z,36.03
2019-04-01T05:54:44.458Z,36.03
2019-04-01T05:57:14.133Z,38.00
2019-04-01T05:59:43.187Z,39.90
2019-04-01T06:02:11.737Z,35.83
2019-04-01T06:04:40.159Z,38.73
2019-04-01T06:07:08.566Z,36.08
2019-04-01T06:09:36.987Z,35.33
2019-04-01T06:12:05.397Z,39.10
2019-04-01T06:14:34.696Z,36.42
2019-04-01T06:17:03.269Z,33.00
2019-04-01T06:19:31.692Z,37.42
2019-04-01T06:22:00.125Z,36.13
2019-04-01T06:24:28.551Z,36.35
2019-04-01T06:26:57.407Z,35.10
2019-04-01T06:29:25.872Z,37.42
2019-04-01T06:31:54.276Z,36.40
2019-04-01T06:34:22.778Z,36.00
2019-04-01T06:36:51.559Z,35.65
2019-04-01T06:39:19.989Z,35.50
2019-04-01T06:41:48.681Z,34.53
2019-04-01T06:44:17.113Z,33.85
2019-04-01T06:46:45.560Z,33.78
2019-04-01T06:49:14.019Z,33.78
2019-04-01T06:51:42.489Z,33.30
2019-04-01T06:54:10.974Z,33.13
2019-04-01T06:56:39.965Z,33.15
2019-04-01T06:59:08.397Z,32.10
2019-04-01T07:01:36.813Z,32.53
2019-04-01T07:04:05.322Z,29.20
2019-04-01T07:06:33.721Z,33.20
2019-04-01T07:09:02.433Z,32.63
2019-04-01T07:11:30.915Z,30.67
2019-04-01T07:14:00.213Z,30.07
2019-04-01T07:16:28.720Z,35.63
2019-04-01T07:18:57.385Z,32.20
2019-04-01T07:21:25.891Z,31.67
2019-04-01T07:23:54.739Z,32.27
2019-04-01T07:26:23.158Z,30.40
2019-04-01T07:28:51.569Z,32.73
2019-04-01T07:31:19.989Z,32.53
2019-04-01T07:33:48.489Z,33.90
2019-04-01T07:36:16.977Z,34.50
2019-04-01T07:38:45.414Z,30.20
2019-04-01T07:41:13.837Z,31.23
2019-04-01T07:43:42.422Z,29.87
2019-04-01T07:46:10.846Z,30.97
2019-04-01T07:48:39.478Z,32.73
2019-04-01T07:51:08.726Z,31.73
2019-04-01T07:53:37.208Z,31.73
2019-04-01T07:56:07.509Z,29.73
2019-04-01T07:58:35.988Z,32.23
2019-04-01T08:01:04.473Z,28.53
2019-04-01T08:03:32.886Z,30.00
2019-04-01T08:06:01.391Z,31.97
2019-04-01T08:08:29.842Z,31.03
2019-04-01T08:10:58.389Z,29.30
2019-04-01T08:13:26.833Z,28.43
2019-04-01T08:15:55.249Z,31.57
2019-04-01T08:18:23.663Z,27.50
2019-04-01T08:20:52.147Z,29.00
2019-04-01T08:23:20.756Z,28.93
2019-04-01T08:25:49.181Z,30.33
2019-04-01T08:28:17.609Z,30.60
2019-04-01T08:30:46.117Z,29.23
2019-04-01T08:33:14.618Z,29.07
2019-04-01T08:35:43.099Z,30.73
2019-04-01T08:38:11.576Z,30.30
2019-04-01T08:40:40.366Z,28.47
2019-04-01T08:43:08.795Z,29.13
2019-04-01T08:45:37.295Z,27.50
2019-04-01T08:48:05.763Z,30.90
2019-04-01T08:50:34.241Z,28.80
2019-04-01T08:53:05.440Z,29.33
2019-04-01T08:55:33.845Z,31.30
2019-04-01T08:58:02.545Z,31.30
2019-04-01T09:00:31.118Z,29.90
2019-04-01T09:02:59.699Z,30.10
2019-04-01T09:05:28.570Z,30.27
2019-04-01T09:07:58.379Z,27.63
2019-04-01T09:10:26.780Z,29.30
2019-04-01T09:12:57.669Z,27.97
2019-04-01T09:15:26.101Z,27.33
2019-04-01T09:17:54.534Z,27.10
2019-04-01T09:20:22.938Z,29.20
2019-04-01T09:22:51.361Z,26.30
2019-04-01T09:25:19.895Z,28.90
2019-04-01T09:27:48.388Z,28.80
2019-04-01T09:30:18.794Z,23.50
2019-04-01T09:32:47.485Z,29.23
2019-04-01T09:35:16.109Z,29.10
2019-04-01T09:37:44.625Z,30.70
2019-04-01T09:40:14.695Z,28.43
2019-04-01T09:42:43.475Z,31.50
2019-04-01T09:45:12.655Z,29.40
2019-04-01T09:47:41.086Z,30.00
2019-04-01T09:50:09.590Z,24.50
2019-04-01T09:52:38.110Z,28.60
2019-04-01T09:55:06.994Z,28.60
2019-04-01T09:57:35.677Z,29.70
2019-04-01T10:00:06.654Z,26.70
2019-04-01T10:02:35.094Z,29.77
2019-04-01T10:05:04.675Z,31.50
2019-04-01T10:07:33.233Z,29.30
2019-04-01T10:10:01.778Z,31.10
2019-04-01T10:12:30.248Z,30.97
2019-04-01T10:14:58.701Z,32.10
2019-04-01T10:17:27.129Z,30.50
2019-04-01T10:19:55.565Z,31.30
2019-04-01T10:22:43.501Z,31.33
2019-04-01T10:25:12.186Z,30.30
2019-04-01T10:27:40.613Z,33.37
2019-04-01T10:30:10.183Z,32.20
2019-04-01T10:32:38.690Z,31.23
2019-04-01T10:35:08.335Z,29.43
2019-04-01T10:37:36.761Z,31.50
2019-04-01T10:40:07.807Z,31.00
2019-04-01T10:42:36.230Z,29.67
2019-04-01T10:45:07.184Z,30.70
2019-04-01T10:47:35.906Z,28.80
2019-04-01T10:50:06.109Z,29.30
2019-04-01T10:52:34.595Z,29.37
2019-04-01T10:55:03.258Z,28.37
2019-04-01T10:57:31.766Z,29.17
2019-04-01T11:00:00.435Z,27.73
2019-04-01T11:02:29.575Z,28.90
2019-04-01T11:04:58.157Z,28.67
2019-04-01T11:07:26.785Z,29.30
2019-04-01T11:09:55.197Z,29.10
2019-04-01T11:12:24.849Z,28.70
2019-04-01T11:14:53.529Z,30.43
2019-04-01T11:17:21.966Z,28.70
2019-04-01T11:19:50.410Z,27.93
2019-04-01T11:22:18.823Z,28.30
2019-04-01T11:24:47.308Z,29.27
2019-04-01T11:27:16.039Z,28.50
2019-04-01T11:29:44.472Z,27.80
2019-04-01T11:32:13.771Z,29.53
2019-04-01T11:34:42.444Z,30.40
2019-04-01T11:37:11.002Z,28.00
2019-04-01T11:39:39.522Z,29.70
2019-04-01T11:42:07.972Z,29.57
2019-04-01T11:44:36.495Z,25.73
2019-04-01T11:47:04.947Z,26.87
2019-04-01T11:49:33.421Z,28.73
2019-04-01T11:52:01.889Z,24.63
2019-04-01T11:54:30.535Z,25.80
2019-04-01T11:56:58.959Z,27.97
2019-04-01T11:59:27.478Z,27.23
2019-04-01T12:01:55.885Z,29.60
2019-04-01T12:04:25.270Z,26.90
2019-04-01T12:06:56.667Z,27.90
2019-04-01T12:09:25.128Z,27.53
2019-04-01T12:11:53.552Z,21.33
2019-04-01T12:14:21.972Z,28.93
2019-04-01T12:16:50.383Z,25.80
2019-04-01T12:19:18.819Z,27.67
2019-04-01T12:21:47.314Z,29.37
2019-04-01T12:24:15.758Z,30.17
2019-04-01T12:26:44.187Z,26.53
2019-04-01T12:29:14.438Z,20.33
2019-04-01T12:31:42.833Z,25.10
2019-04-01T12:34:11.270Z,31.90
2019-04-01T12:36:39.669Z,25.97
2019-04-01T12:39:08.657Z,26.07
2019-04-01T12:41:37.086Z,25.00
2019-04-01T12:44:05.773Z,27.80
2019-04-01T12:46:34.366Z,28.90
2019-04-01T12:49:02.849Z,28.93
2019-04-01T12:51:31.319Z,30.70
2019-04-01T12:53:59.949Z,22.40
2019-04-01T12:56:28.369Z,30.50
2019-04-01T12:58:56.809Z,29.80
2019-04-01T13:01:25.225Z,28.30
2019-04-01T13:03:54.096Z,28.17
2019-04-01T13:06:22.598Z,27.80
2019-04-01T13:08:51.278Z,28.50
2019-04-01T13:11:20.825Z,28.27
2019-04-01T13:13:49.280Z,29.00
2019-04-01T13:16:17.685Z,28.00
2019-04-01T13:18:47.288Z,27.60
2019-04-01T13:21:16.128Z,26.90
2019-04-01T13:23:44.624Z,27.30
2019-04-01T13:26:13.210Z,27.10
2019-04-01T13:28:42.491Z,25.10
2019-04-01T13:31:11.298Z,26.37
2019-04-01T13:33:39.801Z,24.90
2019-04-01T13:36:08.261Z,28.90
2019-04-01T13:38:36.709Z,22.97
2019-04-01T13:41:05.149Z,29.80
2019-04-01T13:43:33.713Z,18.67
2019-04-01T13:46:02.162Z,29.57
2019-04-01T13:48:30.566Z,28.03
2019-04-01T13:50:59.010Z,26.77
2019-04-01T13:53:28.575Z,26.53
2019-04-01T13:55:57.165Z,27.07
2019-04-01T13:58:25.573Z,28.10
2019-04-01T14:00:53.993Z,24.60
2019-04-01T14:03:22.401Z,29.47
2019-04-01T14:05:50.926Z,25.80
2019-04-01T14:08:19.395Z,25.93
2019-04-01T14:10:48.234Z,27.90
2019-04-01T14:13:16.658Z,27.43
2019-04-01T14:15:45.083Z,25.83
2019-04-01T14:18:13.486Z,29.70
2019-04-01T14:20:42.801Z,24.47
2019-04-01T14:23:11.263Z,26.33
2019-04-01T14:25:39.687Z,25.87
2019-04-01T14:28:09.292Z,26.53
2019-04-01T14:30:37.940Z,26.27
2019-04-01T14:33:06.344Z,25.00
2019-04-01T14:35:35.530Z,27.47
2019-04-01T14:38:04.541Z,26.60
2019-04-01T14:40:32.969Z,27.30
2019-04-01T14:43:01.377Z,27.63
2019-04-01T14:45:30.207Z,25.47
2019-04-01T14:47:58.637Z,26.00
2019-04-01T14:50:27.064Z,24.00
2019-04-01T14:52:55.515Z,24.20
2019-04-01T14:55:24.013Z,26.00
2019-04-01T14:57:52.767Z,26.37
2019-04-01T15:00:21.257Z,27.43
2019-04-01T15:02:49.771Z,26.80
2019-04-01T15:05:18.189Z,26.63
2019-04-01T15:07:47.132Z,24.90
2019-04-01T15:10:16.185Z,24.10
2019-04-01T15:12:44.699Z,26.40
2019-04-01T15:15:13.955Z,28.30
2019-04-01T15:17:42.377Z,26.47
2019-04-01T15:20:11.247Z,27.50
2019-04-01T15:22:39.694Z,26.80
2019-04-01T15:25:08.647Z,27.53
2019-04-01T15:27:37.077Z,26.90
2019-04-01T15:30:08.226Z,27.97
2019-04-01T15:32:36.681Z,26.87
2019-04-01T15:35:07.240Z,26.10
2019-04-01T15:37:35.715Z,27.07
2019-04-01T15:40:06.844Z,26.43
2019-04-01T15:42:35.257Z,27.20
2019-04-01T15:45:04.170Z,27.27
2019-04-01T15:47:32.657Z,20.20
2019-04-01T15:50:01.091Z,23.70
2019-04-01T15:52:29.560Z,23.73
2019-04-01T15:54:58.118Z,25.40
2019-04-01T15:57:27.172Z,22.77
2019-04-01T15:59:55.962Z,25.53
2019-04-01T16:02:24.424Z,25.90
2019-04-01T16:04:53.022Z,23.97
2019-04-01T16:07:22.588Z,26.97
2019-04-01T16:09:51.147Z,23.60
2019-04-01T16:12:20.441Z,23.30
2019-04-01T16:14:48.869Z,23.67
2019-04-01T16:17:17.317Z,24.63
2019-04-01T16:19:45.756Z,24.63
2019-04-01T16:22:14.177Z,25.00
2019-04-01T16:24:42.593Z,25.67
2019-04-01T16:27:11.036Z,25.47
2019-04-01T16:29:39.517Z,24.53
2019-04-01T16:32:08.323Z,26.70
2019-04-01T16:34:36.731Z,25.40
2019-04-01T16:37:05.140Z,25.60
2019-04-01T16:39:33.846Z,26.97
2019-04-01T16:42:02.299Z,24.50
2019-04-01T16:44:30.886Z,24.40
2019-04-01T16:46:59.303Z,23.20
2019-04-01T16:49:27.729Z,25.10
2019-04-01T16:51:56.178Z,25.03
2019-04-01T16:54:24.676Z,23.63
2019-04-01T16:56:53.520Z,24.77
2019-04-01T16:59:21.947Z,26.10
2019-04-01T17:01:51.368Z,25.43
2019-04-01T17:04:21.616Z,22.37
2019-04-01T17:06:50.317Z,22.83
2019-04-01T17:09:19.138Z,24.37
2019-04-01T17:11:47.647Z,24.30
2019-04-01T17:14:16.507Z,24.47
2019-04-01T17:16:44.933Z,24.37
2019-04-01T17:19:13.422Z,25.57
2019-04-01T17:21:41.889Z,25.23
2019-04-01T17:24:10.359Z,25.37
2019-04-01T17:26:56.905Z,24.93
2019-04-01T17:29:25.980Z,26.47
2019-04-01T17:31:54.749Z,25.70
2019-04-01T17:34:23.223Z,24.30
2019-04-01T17:36:51.722Z,23.77
2019-04-01T17:39:20.136Z,26.00
2019-04-01T17:41:48.801Z,25.53
2019-04-01T17:44:17.495Z,24.50
2019-04-01T17:46:46.414Z,27.10
2019-04-01T17:49:14.842Z,31.27
2019-04-01T17:51:43.267Z,27.03
2019-04-01T17:54:11.689Z,27.00
2019-04-01T17:56:40.101Z,27.10
2019-04-01T17:59:08.567Z,27.10
2019-04-01T18:01:37.012Z,25.33
2019-04-01T18:04:05.547Z,25.40
2019-04-01T18:06:34.038Z,25.93
2019-04-01T18:09:02.995Z,23.80
2019-04-01T18:11:31.754Z,24.03
2019-04-01T18:14:02.716Z,26.50
2019-04-01T18:16:31.440Z,23.10
2019-04-01T18:19:00.047Z,24.90
2019-04-01T18:21:28.766Z,25.23
2019-04-01T18:23:57.196Z,25.10
2019-04-01T18:26:25.646Z,24.57
2019-04-01T18:28:54.129Z,26.53
2019-04-01T18:31:22.574Z,26.57
2019-04-01T18:33:56.478Z,25.73
2019-04-01T18:36:22.219Z,26.83
2019-04-01T18:38:51.555Z,26.07
2019-04-01T18:41:20.039Z,26.43
2019-04-01T18:43:48.489Z,25.40
2019-04-01T18:46:20.789Z,25.10
2019-04-01T18:48:48.240Z,27.33
2019-04-01T18:51:20.208Z,27.63
2019-04-01T18:53:47.262Z,28.40
2019-04-01T18:56:15.703Z,27.90
2019-04-01T18:58:44.436Z,29.30
2019-04-01T19:01:12.895Z,25.70
2019-04-01T19:03:42.997Z,27.17
2019-04-01T19:06:11.690Z,29.70
2019-04-01T19:08:40.114Z,27.70
2019-04-01T19:11:10.123Z,26.80
2019-04-01T19:13:38.722Z,26.80
2019-04-01T19:16:08.202Z,26.73
2019-04-01T19:18:39.558Z,26.53
2019-04-01T19:21:08.340Z,25.53
2019-04-01T19:23:37.065Z,26.07
2019-04-01T19:26:06.016Z,29.93
2019-04-01T19:28:34.450Z,33.70
2019-04-01T19:31:02.888Z,36.57
2019-04-01T19:33:31.576Z,32.20
2019-04-01T19:36:01.245Z,29.87
2019-04-01T19:38:30.136Z,29.60
2019-04-01T19:40:59.928Z,28.13
2019-04-01T19:43:28.677Z,29.03
2019-04-01T19:45:57.120Z,26.23
2019-04-01T19:48:25.604Z,27.73
2019-04-01T19:50:54.156Z,28.97
2019-04-01T19:53:24.190Z,31.13
2019-04-01T19:55:52.784Z,31.47
2019-04-01T19:58:21.630Z,31.63
2019-04-01T20:00:50.094Z,33.10
2019-04-01T20:03:18.501Z,30.53
2019-04-01T20:05:46.931Z,29.40
2019-04-01T20:08:16.311Z,27.73
2019-04-01T20:10:46.196Z,26.60
2019-04-01T20:13:15.217Z,25.07
2019-04-01T20:15:43.674Z,29.23
2019-04-01T20:18:12.149Z,27.80
2019-04-01T20:20:41.583Z,24.33
2019-04-01T20:23:10.315Z,24.30
2019-04-01T20:25:38.734Z,25.13
2019-04-01T20:28:07.168Z,25.33
2019-04-01T20:30:35.623Z,27.23
2019-04-01T20:33:16.498Z,26.00
2019-04-01T20:35:34.582Z,24.60
2019-04-01T20:38:03.173Z,24.07
2019-04-01T20:40:31.629Z,25.90
2019-04-01T20:43:00.058Z,25.10
2019-04-01T20:45:28.497Z,23.70
2019-04-01T20:47:57.016Z,24.70
2019-04-01T20:50:25.634Z,24.27
2019-04-01T20:52:54.155Z,25.83
2019-04-01T20:55:22.565Z,23.70
2019-04-01T20:57:51.008Z,21.93
2019-04-01T21:00:19.945Z,23.90
2019-04-01T21:02:48.693Z,26.50
2019-04-01T21:05:17.173Z,23.70
2019-04-01T21:07:47.086Z,25.63
2019-04-01T21:10:15.884Z,23.63
2019-04-01T21:12:44.338Z,24.07
2019-04-01T21:15:13.181Z,24.70
2019-04-01T21:17:41.660Z,23.83
2019-04-01T21:20:12.219Z,26.33
2019-04-01T21:22:41.565Z,24.30
2019-04-01T21:25:10.071Z,24.05
2019-04-01T21:27:38.634Z,25.43
2019-04-01T21:30:10.820Z,25.10
2019-04-01T21:32:39.271Z,23.50
2019-04-01T21:35:09.459Z,26.03
2019-04-01T21:37:38.188Z,23.40
2019-04-01T21:40:07.733Z,22.80
2019-04-01T21:42:36.522Z,24.70
2019-04-01T21:45:08.547Z,26.80
2019-04-01T21:47:36.968Z,25.17
2019-04-01T21:50:07.266Z,23.70
2019-04-01T21:52:35.693Z,25.50
2019-04-01T21:55:07.872Z,25.20
2019-04-01T21:57:35.305Z,26.50
2019-04-01T22:00:06.006Z,25.63
2019-04-01T22:02:36.178Z,26.57
2019-04-01T22:05:07.297Z,26.93
2019-04-01T22:07:35.803Z,25.32
2019-04-01T22:10:05.385Z,25.90
2019-04-01T22:12:33.805Z,25.93
2019-04-01T22:15:02.218Z,25.10
2019-04-01T22:17:30.652Z,25.50
2019-04-01T22:19:59.097Z,25.40
2019-04-01T22:22:27.866Z,24.80
2019-04-01T22:24:56.395Z,26.55
2019-04-01T22:27:24.917Z,23.95
2019-04-01T22:29:53.728Z,26.12
2019-04-01T22:32:22.144Z,22.93
2019-04-01T22:34:50.577Z,25.57
2019-04-01T22:37:27.183Z,25.12
2019-04-01T22:39:49.161Z,25.67
2019-04-01T22:42:17.618Z,24.65
2019-04-01T22:44:46.021Z,24.47
2019-04-01T22:47:16.347Z,23.80
2019-04-01T22:49:44.603Z,23.17
2019-04-01T22:52:13.029Z,25.10
2019-04-01T22:54:41.494Z,25.12
2019-04-01T22:57:09.933Z,21.97
2019-04-01T22:59:38.359Z,22.95
2019-04-01T23:02:06.883Z,24.43
2019-04-01T23:04:36.933Z,21.27
2019-04-01T23:07:05.614Z,23.03
2019-04-01T23:09:34.088Z,19.23
2019-04-01T23:12:02.509Z,21.50
2019-04-01T23:14:30.981Z,29.90
2019-04-01T23:16:59.480Z,29.37
2019-04-01T23:19:27.924Z,36.30
2019-04-01T23:21:56.329Z,27.87
2019-04-01T23:24:25.090Z,24.82
2019-04-01T23:26:55.130Z,22.70
2019-04-01T23:29:23.817Z,24.18
2019-04-01T23:31:52.240Z,18.82
2019-04-01T23:34:20.648Z,19.70
2019-04-01T23:36:49.060Z,18.60
2019-04-01T23:39:17.524Z,19.25
2019-04-01T23:41:46.021Z,19.90
2019-04-01T23:44:14.505Z,18.02
2019-04-01T23:46:43.055Z,17.63
2019-04-01T23:49:11.580Z,17.92
2019-04-01T23:51:40.522Z,19.05
2019-04-01T23:54:08.937Z,19.30
2019-04-01T23:56:37.363Z,18.77
2019-04-01T23:59:06.053Z,17.40
